createdAt,value
2023-06-19T00:01:51.650Z,100350.78
2023-06-19T00:04:54.309Z,100342.03
2023-06-19T00:07:56.700Z,100353.16
2023-06-19T00:10:59.419Z,100338.75
2023-06-19T00:14:02.172Z,100351.31
2023-06-19T00:17:05.209Z,100349.13
2023-06-19T00:20:08.012Z,100348.97
2023-06-19T00:23:14.635Z,100348.97
2023-06-19T00:26:17.059Z,100359.06
2023-06-19T00:29:19.815Z,100348.03
2023-06-19T00:32:22.677Z,100355.87
2023-06-19T00:35:26.011Z,100350.84
2023-06-19T00:38:30.029Z,100350.28
2023-06-19T00:41:33.733Z,100341.13
2023-06-19T00:44:36.127Z,100344.66
2023-06-19T00:47:39.539Z,100353.81
2023-06-19T00:50:42.041Z,100347.53
2023-06-19T00:53:44.856Z,100351.31
2023-06-19T00:56:47.439Z,100350.41
2023-06-19T00:59:50.348Z,100346.41
2023-06-19T01:02:52.913Z,100340.09
2023-06-19T01:05:57.654Z,100344.09
2023-06-19T01:09:06.984Z,100327.25
2023-06-19T01:12:15.865Z,100331.66
2023-06-19T01:15:18.841Z,100338.09
2023-06-19T01:18:22.552Z,100336.09
2023-06-19T01:21:25.018Z,100338.91
2023-06-19T01:24:27.712Z,100332.34
2023-06-19T01:27:32.835Z,100338.91
2023-06-19T01:30:35.619Z,100338.37
2023-06-19T01:33:41.498Z,100340.72
2023-06-19T01:36:44.626Z,100340.97
2023-06-19T01:39:48.134Z,100310.19
2023-06-19T01:42:52.145Z,100307.69
2023-06-19T01:45:54.499Z,100323.62
2023-06-19T01:48:57.185Z,100295.97
2023-06-19T01:52:01.971Z,100314.00
2023-06-19T01:55:06.544Z,100320.00
2023-06-19T01:58:11.046Z,100315.91
2023-06-19T02:01:13.666Z,100321.19
2023-06-19T02:04:16.343Z,100310.22
2023-06-19T02:07:18.693Z,100318.78
2023-06-19T02:10:22.847Z,100322.31
2023-06-19T02:13:25.317Z,100327.41
2023-06-19T02:16:28.021Z,100327.09
2023-06-19T02:19:31.164Z,100323.25
2023-06-19T02:22:33.746Z,100307.91
2023-06-19T02:25:37.230Z,100324.56
2023-06-19T02:28:39.986Z,100327.38
2023-06-19T02:31:43.655Z,100334.41
2023-06-19T02:34:46.924Z,100330.47
2023-06-19T02:37:49.604Z,100314.50
2023-06-19T02:40:52.046Z,100319.94
2023-06-19T02:43:55.074Z,100319.00
2023-06-19T02:46:57.389Z,100334.47
2023-06-19T02:50:01.127Z,100346.19
2023-06-19T02:53:03.500Z,100333.31
2023-06-19T02:56:06.181Z,100351.00
2023-06-19T02:59:08.607Z,100346.69
2023-06-19T03:02:11.268Z,100341.28
2023-06-19T03:05:16.103Z,100349.72
2023-06-19T03:08:18.886Z,100346.19
2023-06-19T03:11:21.352Z,100350.41
2023-06-19T03:14:24.159Z,100336.13
2023-06-19T03:17:27.069Z,100354.16
2023-06-19T03:20:29.914Z,100350.41
2023-06-19T03:23:32.690Z,100348.06
2023-06-19T03:26:35.409Z,100353.09
2023-06-19T03:29:38.213Z,100363.75
2023-06-19T03:32:41.181Z,100353.78
2023-06-19T03:35:44.596Z,100376.91
2023-06-19T03:38:49.334Z,100357.91
2023-06-19T03:41:52.331Z,100366.13
2023-06-19T03:44:55.060Z,100377.38
2023-06-19T03:47:57.527Z,100368.94
2023-06-19T03:51:00.620Z,100372.00
2023-06-19T03:54:03.652Z,100362.13
2023-06-19T03:57:07.446Z,100372.22
2023-06-19T04:00:12.296Z,100353.47
2023-06-19T04:03:14.806Z,100379.97
2023-06-19T04:06:17.577Z,100371.75
2023-06-19T04:09:19.990Z,100375.16
2023-06-19T04:12:22.690Z,100376.69
2023-06-19T04:15:25.253Z,100366.47
2023-06-19T04:18:29.369Z,100352.53
2023-06-19T04:21:32.673Z,100357.56
2023-06-19T04:24:36.385Z,100351.09
2023-06-19T04:27:39.000Z,100373.41
2023-06-19T04:30:41.736Z,100373.41
2023-06-19T04:33:44.095Z,100358.59
2023-06-19T04:36:46.733Z,100378.66
2023-06-19T04:39:49.096Z,100371.28
2023-06-19T04:42:55.002Z,100380.41
2023-06-19T04:45:57.371Z,100359.03
2023-06-19T04:49:00.370Z,100381.78
2023-06-19T04:52:04.254Z,100381.53
2023-06-19T04:55:10.424Z,100387.03
2023-06-19T04:58:12.869Z,100383.88
2023-06-19T05:01:16.508Z,100361.47
2023-06-19T05:04:19.046Z,100370.72
2023-06-19T05:07:21.974Z,100379.72
2023-06-19T05:10:24.713Z,100387.47
2023-06-19T05:13:27.706Z,100391.69
2023-06-19T05:16:30.180Z,100396.16
2023-06-19T05:19:33.505Z,100402.13
2023-06-19T05:22:36.068Z,100405.75
2023-06-19T05:25:38.850Z,100399.34
2023-06-19T05:28:41.293Z,100412.09
2023-06-19T05:31:44.014Z,100388.53
2023-06-19T05:34:46.386Z,100410.22
2023-06-19T05:37:49.372Z,100406.97
2023-06-19T05:40:51.927Z,100408.81
2023-06-19T05:43:54.756Z,100409.44
2023-06-19T05:46:57.361Z,100405.00
2023-06-19T05:50:00.605Z,100415.59
2023-06-19T05:53:02.984Z,100402.13
2023-06-19T05:56:06.961Z,100413.09
2023-06-19T05:59:09.462Z,100412.53
2023-06-19T06:02:12.173Z,100429.97
2023-06-19T06:05:15.207Z,100425.75
2023-06-19T06:08:17.688Z,100432.84
2023-06-19T06:11:20.533Z,100432.63
2023-06-19T06:14:24.799Z,100418.28
2023-06-19T06:17:27.535Z,100433.69
2023-06-19T06:20:30.301Z,100410.72
2023-06-19T06:23:33.116Z,100410.66
2023-06-19T06:26:36.584Z,100426.03
2023-06-19T06:29:39.217Z,100435.16
2023-06-19T06:32:41.622Z,100428.75
2023-06-19T06:35:46.958Z,100432.41
2023-06-19T06:38:49.392Z,100430.53
2023-06-19T06:41:52.256Z,100422.12
2023-06-19T06:44:54.632Z,100440.09
2023-06-19T06:47:57.307Z,100438.91
2023-06-19T06:51:02.641Z,100435.59
2023-06-19T06:54:05.313Z,100439.47
2023-06-19T06:57:07.766Z,100434.47
2023-06-19T07:00:12.505Z,100434.53
2023-06-19T07:03:15.071Z,100434.47
2023-06-19T07:06:17.814Z,100421.53
2023-06-19T07:09:22.199Z,100432.22
2023-06-19T07:12:24.910Z,100420.84
2023-06-19T07:15:27.284Z,100439.69
2023-06-19T07:18:30.039Z,100435.66
2023-06-19T07:21:32.576Z,100437.72
2023-06-19T07:24:35.341Z,100436.50
2023-06-19T07:27:38.002Z,100423.47
2023-06-19T07:30:40.995Z,100421.81
2023-06-19T07:33:43.406Z,100430.78
2023-06-19T07:36:46.098Z,100429.91
2023-06-19T07:39:50.966Z,100423.41
2023-06-19T07:42:53.871Z,100424.22
2023-06-19T07:45:56.304Z,100426.69
2023-06-19T07:48:58.986Z,100423.44
2023-06-19T07:52:01.399Z,100434.06
2023-06-19T07:55:04.324Z,100424.22
2023-06-19T07:58:06.771Z,100425.88
2023-06-19T08:01:09.834Z,100426.72
2023-06-19T08:04:12.718Z,100407.59
2023-06-19T08:07:15.311Z,100420.19
2023-06-19T08:10:18.063Z,100423.87
2023-06-19T08:13:21.130Z,100416.50
2023-06-19T08:16:27.103Z,100406.63
2023-06-19T08:19:29.499Z,100411.53
2023-06-19T08:22:32.503Z,100407.97
2023-06-19T08:25:34.906Z,100401.47
2023-06-19T08:28:38.731Z,100421.84
2023-06-19T08:31:41.545Z,100406.75
2023-06-19T08:34:44.586Z,100416.94
2023-06-19T08:37:47.104Z,100416.47
2023-06-19T08:40:50.223Z,100420.13
2023-06-19T08:43:52.768Z,100417.72
2023-06-19T08:46:55.569Z,100415.19
2023-06-19T08:50:02.154Z,100412.78
2023-06-19T08:53:05.419Z,100397.91
2023-06-19T08:56:07.880Z,100411.59
2023-06-19T08:59:15.325Z,100407.97
2023-06-19T09:02:18.202Z,100416.69
2023-06-19T09:05:20.962Z,100409.66
2023-06-19T09:08:24.099Z,100402.97
2023-06-19T09:11:27.314Z,100404.84
2023-06-19T09:14:36.634Z,100404.88
2023-06-19T09:17:39.372Z,100394.13
2023-06-19T09:20:54.907Z,100396.28
2023-06-19T09:24:07.342Z,100407.75
2023-06-19T09:27:14.641Z,100392.75
2023-06-19T09:30:17.763Z,100402.00
2023-06-19T09:33:21.156Z,100401.03
2023-06-19T09:36:25.411Z,100397.06
2023-06-19T09:39:30.283Z,100389.06
2023-06-19T09:42:36.229Z,100381.59
2023-06-19T09:45:39.594Z,100375.59
2023-06-19T09:48:44.152Z,100390.41
2023-06-19T09:51:46.968Z,100391.78
2023-06-19T09:54:55.034Z,100387.56
2023-06-19T09:57:58.398Z,100381.91
2023-06-19T10:01:02.305Z,100381.34
2023-06-19T10:04:11.922Z,100364.59
2023-06-19T10:07:19.163Z,100356.91
2023-06-19T10:10:26.860Z,100371.25
2023-06-19T10:13:39.764Z,100351.81
2023-06-19T10:16:43.216Z,100354.69
2023-06-19T10:19:53.363Z,100359.25
2023-06-19T10:22:59.060Z,100361.72
2023-06-19T10:26:04.078Z,100357.09
2023-06-19T10:29:19.180Z,100364.25
2023-06-19T10:32:22.958Z,100352.59
2023-06-19T10:35:26.134Z,100345.50
2023-06-19T10:38:28.844Z,100355.34
2023-06-19T10:41:33.177Z,100357.03
2023-06-19T10:44:36.158Z,100351.12
2023-06-19T10:47:40.613Z,100342.16
2023-06-19T10:50:43.547Z,100345.41
2023-06-19T10:53:46.392Z,100336.66
2023-06-19T10:56:49.891Z,100344.97
2023-06-19T10:59:53.111Z,100347.19
2023-06-19T11:02:57.400Z,100330.78
2023-06-19T11:06:00.187Z,100335.25
2023-06-19T11:09:04.352Z,100348.81
2023-06-19T11:12:09.154Z,100338.91
2023-06-19T11:15:12.224Z,100337.56
2023-06-19T11:18:17.208Z,100325.78
2023-06-19T11:21:19.732Z,100329.00
2023-06-19T11:24:24.851Z,100335.03
2023-06-19T11:27:29.644Z,100323.50
2023-06-19T11:30:34.324Z,100326.94
2023-06-19T11:33:36.921Z,100305.84
2023-06-19T11:36:43.905Z,100314.75
2023-06-19T11:39:47.421Z,100298.13
2023-06-19T11:42:53.514Z,100297.87
2023-06-19T11:46:06.758Z,100298.75
2023-06-19T11:49:19.916Z,100304.81
2023-06-19T11:52:22.984Z,100298.66
2023-06-19T11:55:25.831Z,100292.75
2023-06-19T11:58:28.258Z,100292.56
2023-06-19T12:01:33.645Z,100297.84
2023-06-19T12:04:36.917Z,100290.59
2023-06-19T12:07:40.381Z,100288.16
2023-06-19T12:10:43.589Z,100299.47
2023-06-19T12:13:46.299Z,100282.19
2023-06-19T12:16:49.532Z,100290.09
2023-06-19T12:19:52.861Z,100291.87
2023-06-19T12:22:56.352Z,100282.03
2023-06-19T12:25:58.821Z,100286.41
2023-06-19T12:29:01.473Z,100277.09
2023-06-19T12:32:04.843Z,100274.47
2023-06-19T12:35:08.404Z,100270.53
2023-06-19T12:38:11.054Z,100254.69
2023-06-19T12:41:13.868Z,100269.00
2023-06-19T12:44:16.339Z,100246.87
2023-06-19T12:47:19.466Z,100253.72
2023-06-19T12:50:22.394Z,100248.97
2023-06-19T12:53:30.068Z,100258.13
2023-06-19T12:56:32.589Z,100238.62
2023-06-19T12:59:35.316Z,100246.28
2023-06-19T13:02:38.123Z,100255.03
2023-06-19T13:05:41.248Z,100244.31
2023-06-19T13:08:44.156Z,100251.44
2023-06-19T13:11:46.893Z,100243.81
2023-06-19T13:14:49.334Z,100227.75
2023-06-19T13:17:52.144Z,100244.84
2023-06-19T13:20:54.562Z,100236.19
2023-06-19T13:23:57.387Z,100227.59
2023-06-19T13:27:00.110Z,100234.81
2023-06-19T13:30:04.092Z,100210.31
2023-06-19T13:33:06.779Z,100232.06
2023-06-19T13:36:09.510Z,100216.03
2023-06-19T13:39:12.068Z,100234.97
2023-06-19T13:42:15.045Z,100215.34
2023-06-19T13:45:17.716Z,100229.00
2023-06-19T13:48:20.422Z,100228.28
2023-06-19T13:51:23.182Z,100222.34
2023-06-19T13:54:25.901Z,100222.12
2023-06-19T13:57:28.360Z,100209.22
2023-06-19T14:00:31.200Z,100215.62
2023-06-19T14:03:34.279Z,100223.09
2023-06-19T14:06:39.197Z,100221.34
2023-06-19T14:09:42.619Z,100214.97
2023-06-19T14:12:45.000Z,100221.34
2023-06-19T14:15:47.781Z,100206.69
2023-06-19T14:18:50.158Z,100214.88
2023-06-19T14:21:52.923Z,100208.66
2023-06-19T14:25:00.647Z,100207.16
2023-06-19T14:28:05.732Z,100203.72
2023-06-19T14:31:08.506Z,100203.47
2023-06-19T14:34:11.233Z,100202.50
2023-06-19T14:37:13.931Z,100209.38
2023-06-19T14:40:16.699Z,100210.97
2023-06-19T14:43:19.242Z,100207.75
2023-06-19T14:46:37.293Z,100204.31
2023-06-19T14:49:41.701Z,100211.31
2023-06-19T14:52:44.551Z,100202.09
2023-06-19T14:55:48.195Z,100200.84
2023-06-19T14:58:50.928Z,100190.38
2023-06-19T15:01:53.375Z,100198.09
2023-06-19T15:05:05.883Z,100204.28
2023-06-19T15:08:11.117Z,100192.47
2023-06-19T15:11:13.892Z,100200.63
2023-06-19T15:14:16.736Z,100190.22
2023-06-19T15:17:20.092Z,100188.22
2023-06-19T15:20:22.757Z,100194.88
2023-06-19T15:23:25.764Z,100187.13
2023-06-19T15:26:28.271Z,100188.31
2023-06-19T15:29:31.996Z,100189.19
2023-06-19T15:32:35.496Z,100201.84
2023-06-19T15:35:38.276Z,100201.41
2023-06-19T15:38:41.012Z,100184.62
2023-06-19T15:41:48.482Z,100196.13
2023-06-19T15:44:51.093Z,100191.78
2023-06-19T15:47:54.485Z,100191.16
2023-06-19T15:50:57.247Z,100202.97
2023-06-19T15:54:00.063Z,100201.84
2023-06-19T15:57:02.531Z,100186.22
2023-06-19T16:00:06.581Z,100200.84
2023-06-19T16:03:14.949Z,100205.88
2023-06-19T16:06:17.773Z,100197.25
2023-06-19T16:09:20.328Z,100184.38
2023-06-19T16:12:23.424Z,100193.03
2023-06-19T16:15:29.009Z,100195.41
2023-06-19T16:18:31.790Z,100198.00
2023-06-19T16:21:34.225Z,100185.22
2023-06-19T16:24:37.435Z,100183.97
2023-06-19T16:27:40.032Z,100198.84
2023-06-19T16:30:42.795Z,100198.66
2023-06-19T16:33:45.729Z,100188.81
2023-06-19T16:36:49.437Z,100186.19
2023-06-19T16:39:51.814Z,100188.06
2023-06-19T16:42:55.155Z,100182.06
2023-06-19T16:45:57.565Z,100205.12
2023-06-19T16:49:00.310Z,100203.28
2023-06-19T16:52:02.871Z,100212.44
2023-06-19T16:55:06.176Z,100203.09
2023-06-19T16:58:08.603Z,100196.91
2023-06-19T17:01:13.026Z,100196.16
2023-06-19T17:04:15.793Z,100214.84
2023-06-19T17:07:18.762Z,100207.94
2023-06-19T17:10:22.981Z,100211.06
2023-06-19T17:13:26.066Z,100204.53
2023-06-19T17:16:28.554Z,100202.97
2023-06-19T17:19:31.376Z,100202.22
2023-06-19T17:22:33.807Z,100209.16
2023-06-19T17:25:36.621Z,100207.94
2023-06-19T17:28:39.123Z,100202.00
2023-06-19T17:31:41.854Z,100189.94
2023-06-19T17:34:44.319Z,100205.50
2023-06-19T17:37:47.200Z,100207.22
2023-06-19T17:40:49.654Z,100227.41
2023-06-19T17:43:52.360Z,100222.53
2023-06-19T17:46:54.799Z,100220.50
2023-06-19T17:49:57.731Z,100204.34
2023-06-19T17:53:00.185Z,100227.75
2023-06-19T17:56:05.830Z,100214.50
2023-06-19T17:59:08.418Z,100224.81
2023-06-19T18:02:11.405Z,100230.13
2023-06-19T18:05:14.127Z,100233.44
2023-06-19T18:08:16.571Z,100230.94
2023-06-19T18:11:19.269Z,100221.97
2023-06-19T18:14:25.932Z,100232.78
2023-06-19T18:17:28.727Z,100233.66
2023-06-19T18:20:31.366Z,100230.94
2023-06-19T18:23:34.161Z,100234.34
2023-06-19T18:26:36.776Z,100233.69
2023-06-19T18:29:39.570Z,100237.41
2023-06-19T18:32:42.142Z,100228.91
2023-06-19T18:35:44.963Z,100237.41
2023-06-19T18:38:47.908Z,100246.06
2023-06-19T18:41:50.672Z,100245.25
2023-06-19T18:44:53.786Z,100252.28
2023-06-19T18:47:56.512Z,100247.47
2023-06-19T18:50:59.357Z,100250.37
2023-06-19T18:54:02.090Z,100256.94
2023-06-19T18:57:04.766Z,100250.50
2023-06-19T19:00:07.989Z,100237.19
2023-06-19T19:03:10.627Z,100269.81
2023-06-19T19:06:15.367Z,100262.91
2023-06-19T19:09:19.335Z,100269.88
2023-06-19T19:12:22.031Z,100282.16
2023-06-19T19:15:24.627Z,100279.75
2023-06-19T19:18:27.624Z,100271.66
2023-06-19T19:21:30.252Z,100278.97
2023-06-19T19:24:33.144Z,100287.16
2023-06-19T19:27:35.600Z,100286.38
2023-06-19T19:30:38.402Z,100274.22
2023-06-19T19:33:40.960Z,100281.19
2023-06-19T19:36:43.859Z,100290.56
2023-06-19T19:39:46.333Z,100289.31
2023-06-19T19:42:49.378Z,100283.66
2023-06-19T19:45:52.330Z,100304.84
2023-06-19T19:48:55.113Z,100305.66
2023-06-19T19:51:57.545Z,100298.34
2023-06-19T19:55:00.316Z,100294.31
2023-06-19T19:58:03.372Z,100301.28
2023-06-19T20:01:06.264Z,100292.72
2023-06-19T20:04:09.153Z,100319.19
2023-06-19T20:07:11.984Z,100320.03
2023-06-19T20:10:15.202Z,100324.91
2023-06-19T20:13:17.710Z,100306.97
2023-06-19T20:16:20.415Z,100324.87
2023-06-19T20:19:23.099Z,100317.56
2023-06-19T20:22:25.915Z,100318.37
2023-06-19T20:25:28.235Z,100320.81
2023-06-19T20:28:30.963Z,100315.09
2023-06-19T20:31:33.375Z,100328.16
2023-06-19T20:34:36.428Z,100322.44
2023-06-19T20:37:39.929Z,100324.44
2023-06-19T20:40:43.013Z,100331.38
2023-06-19T20:43:46.788Z,100319.50
2023-06-19T20:46:49.970Z,100328.84
2023-06-19T20:49:52.376Z,100335.31
2023-06-19T20:52:55.097Z,100338.53
2023-06-19T20:55:57.508Z,100342.19
2023-06-19T20:59:00.249Z,100341.31
2023-06-19T21:02:03.953Z,100339.66
2023-06-19T21:05:09.798Z,100347.44
2023-06-19T21:08:12.218Z,100335.22
2023-06-19T21:11:16.400Z,100335.16
2023-06-19T21:14:18.843Z,100356.28
2023-06-19T21:17:21.632Z,100354.19
2023-06-19T21:20:26.945Z,100345.56
2023-06-19T21:23:30.001Z,100352.06
2023-06-19T21:26:32.352Z,100356.50
2023-06-19T21:29:36.180Z,100360.97
2023-06-19T21:32:38.636Z,100341.31
2023-06-19T21:35:41.457Z,100357.59
2023-06-19T21:38:43.828Z,100360.88
2023-06-19T21:41:46.697Z,100349.37
2023-06-19T21:44:49.093Z,100363.66
2023-06-19T21:47:51.995Z,100362.78
2023-06-19T21:50:54.639Z,100365.19
2023-06-19T21:53:57.349Z,100374.47
2023-06-19T21:56:59.829Z,100365.91
2023-06-19T22:00:05.403Z,100375.59
2023-06-19T22:03:07.740Z,100358.84
2023-06-19T22:06:10.692Z,100368.56
2023-06-19T22:09:13.073Z,100369.37
2023-06-19T22:12:15.758Z,100364.72
2023-06-19T22:15:18.279Z,100381.81
2023-06-19T22:18:21.005Z,100367.53
2023-06-19T22:21:23.443Z,100382.56
2023-06-19T22:24:26.331Z,100395.91
2023-06-19T22:27:28.810Z,100393.44
2023-06-19T22:30:31.768Z,100386.09
2023-06-19T22:33:34.222Z,100388.00
2023-06-19T22:36:36.970Z,100372.06
2023-06-19T22:39:39.395Z,100391.62
2023-06-19T22:42:42.959Z,100389.19
2023-06-19T22:45:45.496Z,100378.81
2023-06-19T22:48:51.708Z,100390.09
2023-06-19T22:51:54.434Z,100386.75
2023-06-19T22:54:57.069Z,100381.28
2023-06-19T22:57:59.428Z,100394.53
2023-06-19T23:01:02.138Z,100390.38
2023-06-19T23:04:05.927Z,100386.22
2023-06-19T23:07:08.599Z,100385.41
2023-06-19T23:10:11.431Z,100371.06
2023-06-19T23:13:14.198Z,100365.41
2023-06-19T23:16:16.565Z,100374.78
2023-06-19T23:19:19.210Z,100354.25
2023-06-19T23:22:25.740Z,100370.94
2023-06-19T23:25:28.615Z,100361.53
2023-06-19T23:28:32.786Z,100374.00
2023-06-19T23:31:35.829Z,100371.16
2023-06-19T23:34:38.316Z,100362.41
2023-06-19T23:37:41.085Z,100370.09
2023-06-19T23:40:43.550Z,100377.78
2023-06-19T23:43:49.921Z,100371.81
2023-06-19T23:46:52.314Z,100368.09
2023-06-19T23:49:55.040Z,100369.50
2023-06-19T23:52:57.413Z,100369.31
2023-06-19T23:56:00.144Z,100348.81
2023-06-19T23:59:02.619Z,100373.16
